New Preston Marble Dale, Connecticut
Current Conditions -  °F | °C
As of 11:50 AM on Sunday 21 Dec 2014 (Local Time) from KOXC Reporting Station
Light Snow Light Snow  
Wind Chill: -5°   Ceiling: 700
Heat Index: -1°   Visibility: 2mi
Dew Point: -4°   Wind: 7mph
Humidity: 80%   Direction: 360°N
Pressure: 30.28"   Gusts: NA
Location:  41.69°N, 73.35°W
Report Text: KOXC 211550Z 36006KT 2SM -SN BR BKN007 OVC014 M01/M04 A3028
Loading
Personal Weather Stations






























Interactive Weather Map New forecast layout! Learn more

10-Day Weather Forecast

Advertisements
Track Severe Weather on mobile